createdAt,value
2016-12-09T00:00:15.975Z,23.06
2016-12-09T00:00:43.662Z,22.95
2016-12-09T00:01:11.380Z,22.89
2016-12-09T00:01:39.180Z,22.86
2016-12-09T00:02:06.832Z,22.88
2016-12-09T00:02:34.511Z,22.73
2016-12-09T00:03:02.194Z,22.7
2016-12-09T00:03:29.970Z,22.65
2016-12-09T00:03:57.635Z,22.7
2016-12-09T00:04:25.324Z,22.65
2016-12-09T00:04:53.030Z,22.63
2016-12-09T00:05:20.843Z,22.52
2016-12-09T00:05:48.552Z,22.58
2016-12-09T00:06:16.251Z,22.61
2016-12-09T00:06:43.946Z,22.62
2016-12-09T00:07:11.661Z,22.61
2016-12-09T00:07:39.360Z,22.74
2016-12-09T00:08:07.052Z,22.71
2016-12-09T00:08:34.857Z,22.65
2016-12-09T00:09:02.526Z,22.76
2016-12-09T00:09:30.249Z,22.7
2016-12-09T00:09:58.033Z,22.83
2016-12-09T00:10:25.753Z,22.88
2016-12-09T00:10:53.453Z,22.91
2016-12-09T00:11:21.154Z,22.98
2016-12-09T00:11:48.834Z,22.98
2016-12-09T00:12:16.546Z,23.1
2016-12-09T00:12:44.238Z,23.1
2016-12-09T00:13:12.015Z,23.07
2016-12-09T00:13:39.723Z,23.08
2016-12-09T00:14:07.435Z,23.02
2016-12-09T00:14:35.144Z,22.95
2016-12-09T00:15:02.804Z,22.93
2016-12-09T00:15:30.510Z,22.89
2016-12-09T00:15:58.288Z,22.8
2016-12-09T00:16:25.994Z,22.76
2016-12-09T00:16:53.647Z,22.71
2016-12-09T00:17:21.382Z,22.77
2016-12-09T00:17:49.144Z,22.76
2016-12-09T00:18:16.824Z,22.68
2016-12-09T00:18:44.586Z,22.71
2016-12-09T00:19:12.324Z,22.62
2016-12-09T00:19:40.052Z,22.62
2016-12-09T00:20:07.925Z,22.61
2016-12-09T00:20:35.607Z,22.63
2016-12-09T00:21:03.304Z,22.53
2016-12-09T00:21:31.019Z,22.59
2016-12-09T00:21:58.691Z,22.55
2016-12-09T00:22:26.392Z,22.53
2016-12-09T00:22:54.095Z,22.58
2016-12-09T00:23:21.785Z,22.62
2016-12-09T00:23:49.491Z,22.53
2016-12-09T00:24:17.187Z,22.47
2016-12-09T00:24:44.880Z,22.52
2016-12-09T00:25:12.597Z,22.44
2016-12-09T00:25:40.282Z,22.47
2016-12-09T00:26:07.979Z,22.55
2016-12-09T00:26:35.794Z,22.44
2016-12-09T00:27:03.480Z,22.47
2016-12-09T00:27:31.186Z,22.58
2016-12-09T00:27:58.878Z,22.55
2016-12-09T00:28:26.585Z,22.59
2016-12-09T00:28:54.275Z,22.58
2016-12-09T00:29:21.975Z,22.55
2016-12-09T00:29:49.667Z,22.55
2016-12-09T00:30:17.377Z,22.58
2016-12-09T00:30:45.169Z,22.61
2016-12-09T00:31:12.880Z,22.53
2016-12-09T00:31:40.682Z,22.62
2016-12-09T00:32:08.448Z,22.7
2016-12-09T00:32:36.175Z,22.71
2016-12-09T00:33:03.863Z,22.63
2016-12-09T00:33:31.536Z,22.7
2016-12-09T00:33:59.382Z,22.78
2016-12-09T00:34:27.103Z,22.73
2016-12-09T00:34:54.798Z,22.74
2016-12-09T00:35:22.584Z,22.8
2016-12-09T00:35:50.274Z,22.86
2016-12-09T00:36:17.952Z,22.84
2016-12-09T00:36:45.658Z,22.89
2016-12-09T00:37:13.432Z,22.86
2016-12-09T00:37:41.124Z,22.81
2016-12-09T00:38:08.824Z,22.86
2016-12-09T00:38:36.519Z,22.96
2016-12-09T00:39:04.255Z,23.02
2016-12-09T00:39:31.941Z,22.95
2016-12-09T00:39:59.625Z,23.02
2016-12-09T00:40:27.309Z,23.01
2016-12-09T00:40:54.994Z,23.07
2016-12-09T00:41:22.702Z,23.13
2016-12-09T00:41:50.387Z,23.17
2016-12-09T00:42:18.165Z,23.21
2016-12-09T00:42:45.945Z,23.26
2016-12-09T00:43:13.630Z,23.26
2016-12-09T00:43:41.320Z,23.28
2016-12-09T00:44:09.022Z,23.21
2016-12-09T00:44:36.727Z,23.23
2016-12-09T00:45:04.489Z,23.2
2016-12-09T00:45:32.187Z,23.13
2016-12-09T00:45:59.956Z,23.17
2016-12-09T00:46:27.765Z,23.18
2016-12-09T00:46:55.489Z,23.08
2016-12-09T00:47:23.212Z,23.08
2016-12-09T00:47:50.893Z,23.04
2016-12-09T00:48:18.586Z,23.1
2016-12-09T00:48:46.403Z,23.11
2016-12-09T00:49:14.081Z,23.08
2016-12-09T00:49:41.880Z,23.08
2016-12-09T00:50:09.560Z,23.08
2016-12-09T00:50:37.279Z,23.08
2016-12-09T00:51:04.944Z,23.1
2016-12-09T00:51:32.618Z,23.06
2016-12-09T00:52:00.306Z,23.01
2016-12-09T00:52:27.991Z,22.99
2016-12-09T00:52:55.730Z,23.02
2016-12-09T00:53:23.424Z,23.06
2016-12-09T00:53:51.295Z,23.08
2016-12-09T00:54:19.024Z,23.08
2016-12-09T00:54:46.729Z,23.1
2016-12-09T00:55:14.451Z,23.08
2016-12-09T00:55:42.181Z,23.1
2016-12-09T00:56:09.946Z,23.17
2016-12-09T00:56:37.615Z,23.1
2016-12-09T00:57:05.357Z,23.14
2016-12-09T00:57:33.035Z,23.11
2016-12-09T00:58:00.812Z,23.07
2016-12-09T00:58:28.497Z,23.07
2016-12-09T00:58:56.199Z,23.08
2016-12-09T00:59:23.871Z,23.04
2016-12-09T00:59:51.568Z,22.95
2016-12-09T01:00:19.393Z,22.95
2016-12-09T01:00:47.080Z,22.91
2016-12-09T01:01:14.793Z,22.91
2016-12-09T01:01:42.572Z,22.95
2016-12-09T01:02:10.272Z,22.91
2016-12-09T01:02:38.045Z,22.86
2016-12-09T01:03:05.720Z,22.86
2016-12-09T01:03:33.410Z,22.88
2016-12-09T01:04:01.102Z,22.83
2016-12-09T01:04:28.874Z,22.8
2016-12-09T01:04:56.582Z,22.88
2016-12-09T01:05:24.372Z,22.83
2016-12-09T01:05:52.047Z,22.84
2016-12-09T01:06:19.927Z,22.83
2016-12-09T01:06:47.639Z,22.84
2016-12-09T01:07:15.341Z,22.81
2016-12-09T01:07:43.036Z,22.89
2016-12-09T01:08:10.748Z,22.89
2016-12-09T01:08:38.453Z,22.83
2016-12-09T01:09:06.134Z,22.88
2016-12-09T01:09:33.874Z,22.91
2016-12-09T01:10:01.746Z,22.93
2016-12-09T01:10:29.585Z,23.01
2016-12-09T01:10:57.301Z,22.96
2016-12-09T01:11:25.004Z,22.95
2016-12-09T01:11:52.705Z,22.91
2016-12-09T01:12:20.482Z,22.98
2016-12-09T01:12:48.201Z,22.95
2016-12-09T01:13:15.978Z,22.95
2016-12-09T01:13:43.860Z,22.95
2016-12-09T01:14:11.552Z,22.99
2016-12-09T01:14:39.253Z,22.98
2016-12-09T01:15:06.971Z,23.07
2016-12-09T01:15:34.661Z,23.1
2016-12-09T01:16:02.384Z,23.07
2016-12-09T01:16:30.090Z,23.1
2016-12-09T01:16:57.782Z,23.08
2016-12-09T01:17:25.472Z,23.1
2016-12-09T01:17:53.170Z,23.11
2016-12-09T01:18:20.865Z,23.1
2016-12-09T01:18:48.875Z,23.1
2016-12-09T01:19:16.700Z,23.11
2016-12-09T01:19:44.363Z,23.08
2016-12-09T01:20:12.176Z,23.01
2016-12-09T01:20:39.850Z,22.98
2016-12-09T01:21:07.672Z,22.99
2016-12-09T01:21:35.375Z,22.83
2016-12-09T01:22:03.137Z,22.83
2016-12-09T01:22:30.820Z,22.81
2016-12-09T01:22:58.599Z,22.88
2016-12-09T01:23:26.438Z,22.84
2016-12-09T01:23:54.143Z,22.88
2016-12-09T01:24:21.881Z,22.98
2016-12-09T01:24:49.565Z,22.96
2016-12-09T01:25:17.274Z,22.86
2016-12-09T01:25:44.986Z,22.88
2016-12-09T01:26:12.707Z,22.88
2016-12-09T01:26:40.411Z,22.78
2016-12-09T01:27:08.222Z,22.8
2016-12-09T01:27:36.029Z,22.86
2016-12-09T01:28:03.710Z,22.86
2016-12-09T01:28:31.525Z,22.83
2016-12-09T01:28:59.309Z,22.88
2016-12-09T01:29:27.022Z,22.91
2016-12-09T01:29:54.832Z,22.83
2016-12-09T01:30:22.626Z,22.89
2016-12-09T01:30:50.319Z,22.8
2016-12-09T01:31:18.091Z,22.83
2016-12-09T01:31:45.758Z,22.81
2016-12-09T01:32:13.541Z,22.89
2016-12-09T01:32:41.368Z,22.93
2016-12-09T01:33:09.052Z,22.89
2016-12-09T01:33:36.750Z,22.92
2016-12-09T01:34:04.556Z,22.96
2016-12-09T01:34:32.372Z,22.93
2016-12-09T01:35:00.112Z,22.95
2016-12-09T01:35:27.800Z,23.01
2016-12-09T01:35:55.463Z,23.14
2016-12-09T01:36:23.153Z,23.06
2016-12-09T01:36:50.862Z,23.08
2016-12-09T01:37:18.577Z,23.2
2016-12-09T01:37:46.330Z,23.25
2016-12-09T01:38:14.036Z,23.2
2016-12-09T01:38:41.793Z,23.23
2016-12-09T01:39:09.511Z,23.29
2016-12-09T01:39:37.321Z,23.32
2016-12-09T01:40:05.081Z,23.26
2016-12-09T01:40:32.779Z,23.23
2016-12-09T01:41:00.552Z,23.23
2016-12-09T01:41:28.245Z,23.17
2016-12-09T01:41:55.930Z,23.04
2016-12-09T01:42:23.664Z,23.16
2016-12-09T01:42:51.409Z,23.02
2016-12-09T01:43:19.186Z,23.01
2016-12-09T01:43:46.868Z,22.92
2016-12-09T01:44:14.575Z,22.92
2016-12-09T01:44:42.264Z,22.78
2016-12-09T01:45:09.971Z,22.8
2016-12-09T01:45:37.741Z,22.77
2016-12-09T01:46:05.462Z,22.78
2016-12-09T01:46:33.343Z,22.67
2016-12-09T01:47:01.106Z,22.73
2016-12-09T01:47:28.790Z,22.76
2016-12-09T01:47:56.693Z,22.68
2016-12-09T01:48:24.348Z,22.68
2016-12-09T01:48:52.041Z,22.68
2016-12-09T01:49:19.725Z,22.68
2016-12-09T01:49:47.427Z,22.73
2016-12-09T01:50:15.187Z,22.67
2016-12-09T01:50:42.906Z,22.63
2016-12-09T01:51:10.588Z,22.63
2016-12-09T01:51:38.291Z,22.53
2016-12-09T01:52:05.984Z,22.67
2016-12-09T01:52:33.767Z,22.56
2016-12-09T01:53:01.461Z,22.55
2016-12-09T01:53:29.149Z,22.58
2016-12-09T01:53:56.828Z,22.56
2016-12-09T01:54:24.530Z,22.55
2016-12-09T01:54:52.200Z,22.51
2016-12-09T01:55:19.892Z,22.44
2016-12-09T01:55:47.579Z,22.44
2016-12-09T01:56:15.336Z,22.46
2016-12-09T01:56:43.023Z,22.44
2016-12-09T01:57:10.778Z,22.37
2016-12-09T01:57:38.474Z,22.41
2016-12-09T01:58:06.171Z,22.41
2016-12-09T01:58:33.856Z,22.38
2016-12-09T01:59:01.651Z,22.4
2016-12-09T01:59:29.335Z,22.41
2016-12-09T01:59:57.037Z,22.49
2016-12-09T02:00:24.815Z,22.47
2016-12-09T02:00:52.622Z,22.44
2016-12-09T02:01:20.438Z,22.55
2016-12-09T02:01:48.153Z,22.51
2016-12-09T02:02:15.854Z,22.47
2016-12-09T02:02:43.640Z,22.49
2016-12-09T02:03:11.496Z,22.47
2016-12-09T02:03:39.172Z,22.44
2016-12-09T02:04:06.952Z,22.49
2016-12-09T02:04:34.636Z,22.47
2016-12-09T02:05:02.314Z,22.44
2016-12-09T02:05:29.985Z,22.52
2016-12-09T02:05:57.801Z,22.51
2016-12-09T02:06:25.686Z,22.46
2016-12-09T02:06:53.405Z,22.59
2016-12-09T02:07:21.095Z,22.46
2016-12-09T02:07:48.791Z,22.58
2016-12-09T02:08:16.446Z,22.49
2016-12-09T02:08:44.135Z,22.51
2016-12-09T02:09:11.868Z,22.56
2016-12-09T02:09:39.527Z,22.55
2016-12-09T02:10:07.209Z,22.63
2016-12-09T02:10:34.917Z,22.52
2016-12-09T02:11:02.614Z,22.65
2016-12-09T02:11:30.287Z,22.51
2016-12-09T02:11:58.005Z,22.53
2016-12-09T02:12:25.785Z,22.53
2016-12-09T02:12:53.561Z,22.58
2016-12-09T02:13:21.266Z,22.59
2016-12-09T02:13:48.938Z,22.59
2016-12-09T02:14:16.622Z,22.52
2016-12-09T02:14:44.369Z,22.52
2016-12-09T02:15:12.602Z,22.51
2016-12-09T02:15:40.788Z,22.49
2016-12-09T02:16:08.953Z,22.49
2016-12-09T02:16:37.118Z,22.49
2016-12-09T02:17:05.265Z,22.46
2016-12-09T02:17:33.440Z,22.51
2016-12-09T02:18:01.592Z,22.4
2016-12-09T02:18:29.744Z,22.4
2016-12-09T02:18:57.909Z,22.44
2016-12-09T02:19:26.178Z,22.47
2016-12-09T02:19:54.322Z,22.44
2016-12-09T02:20:22.518Z,22.52
2016-12-09T02:20:50.711Z,22.47
2016-12-09T02:21:18.881Z,22.51
2016-12-09T02:21:47.031Z,22.47
2016-12-09T02:22:15.172Z,22.51
2016-12-09T02:22:43.388Z,22.51
2016-12-09T02:23:11.625Z,22.49
2016-12-09T02:23:39.750Z,22.44
2016-12-09T02:24:07.925Z,22.51
2016-12-09T02:24:36.083Z,22.44
2016-12-09T02:25:04.273Z,22.47
2016-12-09T02:25:32.450Z,22.55
2016-12-09T02:26:00.585Z,22.47
2016-12-09T02:26:28.731Z,22.52
2016-12-09T02:26:56.893Z,22.49
2016-12-09T02:27:25.030Z,22.59
2016-12-09T02:27:53.279Z,22.53
2016-12-09T02:28:21.454Z,22.55
2016-12-09T02:28:49.804Z,22.49
2016-12-09T02:29:18.053Z,22.53
2016-12-09T02:29:46.220Z,22.53
2016-12-09T02:30:14.474Z,22.47
2016-12-09T02:30:42.746Z,22.52
2016-12-09T02:31:10.904Z,22.52
2016-12-09T02:31:39.053Z,22.52
2016-12-09T02:32:07.181Z,22.52
2016-12-09T02:32:35.338Z,22.49
2016-12-09T02:33:03.500Z,22.49
2016-12-09T02:33:31.649Z,22.51
2016-12-09T02:33:59.800Z,22.56
2016-12-09T02:34:27.952Z,22.59
2016-12-09T02:34:56.198Z,22.58
2016-12-09T02:35:24.364Z,22.61
2016-12-09T02:35:52.587Z,22.53
2016-12-09T02:36:20.751Z,22.56
2016-12-09T02:36:48.906Z,22.49
2016-12-09T02:37:17.070Z,22.47
2016-12-09T02:37:45.226Z,22.63
2016-12-09T02:38:13.399Z,22.65
2016-12-09T02:38:41.556Z,22.63
2016-12-09T02:39:09.807Z,22.71
2016-12-09T02:39:37.974Z,22.77
2016-12-09T02:40:06.136Z,22.76
2016-12-09T02:40:34.322Z,22.77
2016-12-09T02:41:02.509Z,22.83
2016-12-09T02:41:30.757Z,22.89
2016-12-09T02:41:58.929Z,22.86
2016-12-09T02:42:27.071Z,22.81
2016-12-09T02:42:55.285Z,22.84
2016-12-09T02:43:23.426Z,22.88
2016-12-09T02:43:51.604Z,22.84
2016-12-09T02:44:19.747Z,22.81
2016-12-09T02:44:47.914Z,22.84
2016-12-09T02:45:16.156Z,22.92
2016-12-09T02:45:44.365Z,22.83
2016-12-09T02:46:12.532Z,22.81
2016-12-09T02:46:40.691Z,22.78
2016-12-09T02:47:08.841Z,22.77
2016-12-09T02:47:37.033Z,22.76
2016-12-09T02:48:05.191Z,22.86
2016-12-09T02:48:33.376Z,22.78
2016-12-09T02:49:01.539Z,22.73
2016-12-09T02:49:29.699Z,22.8
2016-12-09T02:49:57.871Z,22.71
2016-12-09T02:50:26.036Z,22.71
2016-12-09T02:50:54.224Z,22.67
2016-12-09T02:51:22.473Z,22.71
2016-12-09T02:51:50.643Z,22.65
2016-12-09T02:52:18.832Z,22.67
2016-12-09T02:52:47.004Z,22.67
2016-12-09T02:53:15.158Z,22.68
2016-12-09T02:53:43.284Z,22.71
2016-12-09T02:54:11.455Z,22.68
2016-12-09T02:54:39.581Z,22.65
2016-12-09T02:55:07.822Z,22.77
2016-12-09T02:55:35.988Z,22.71
2016-12-09T02:56:04.132Z,22.74
2016-12-09T02:56:32.316Z,22.77
2016-12-09T02:57:00.447Z,22.76
2016-12-09T02:57:28.627Z,22.76
2016-12-09T02:57:56.801Z,22.74
2016-12-09T02:58:24.939Z,22.73
2016-12-09T02:58:53.099Z,22.71
2016-12-09T02:59:21.386Z,22.78
2016-12-09T02:59:49.555Z,22.84
2016-12-09T03:00:17.720Z,22.73
2016-12-09T03:00:45.887Z,22.71
2016-12-09T03:01:14.347Z,22.73
2016-12-09T03:01:42.516Z,22.78
2016-12-09T03:02:10.704Z,22.73
2016-12-09T03:02:38.855Z,22.74
2016-12-09T03:03:07.016Z,22.73
2016-12-09T03:03:35.179Z,22.74
2016-12-09T03:04:04.416Z,22.78
2016-12-09T03:04:38.462Z,22.77
2016-12-09T03:05:08.883Z,22.76
2016-12-09T03:05:37.612Z,22.8
2016-12-09T03:06:08.189Z,22.76
2016-12-09T03:06:39.466Z,22.76
2016-12-09T03:07:10.828Z,22.76
2016-12-09T03:07:41.124Z,22.81
2016-12-09T03:08:15.683Z,22.78
2016-12-09T03:09:17.977Z,22.74
2016-12-09T03:09:49.821Z,22.71
2016-12-09T03:10:27.030Z,22.77
2016-12-09T03:11:00.455Z,22.8
2016-12-09T03:11:34.133Z,22.84
2016-12-09T03:12:06.115Z,22.83
2016-12-09T03:12:37.533Z,22.86
2016-12-09T03:13:13.137Z,22.83
2016-12-09T03:13:47.127Z,22.81
2016-12-09T03:14:22.288Z,22.83
2016-12-09T03:14:56.910Z,22.88
2016-12-09T03:15:30.760Z,22.88
2016-12-09T03:16:02.460Z,22.89
2016-12-09T03:16:32.923Z,22.89
2016-12-09T03:17:04.579Z,22.8
2016-12-09T03:17:36.291Z,22.8
2016-12-09T03:18:08.555Z,22.88
2016-12-09T03:18:39.242Z,22.78
2016-12-09T03:19:07.400Z,22.81
2016-12-09T03:19:35.583Z,22.86
2016-12-09T03:20:03.760Z,22.84
2016-12-09T03:20:31.939Z,22.88
2016-12-09T03:21:00.087Z,22.83
2016-12-09T03:21:28.236Z,22.86
2016-12-09T03:21:56.441Z,22.83
2016-12-09T03:22:24.752Z,22.77
2016-12-09T03:22:52.989Z,22.83
2016-12-09T03:23:21.131Z,22.86
2016-12-09T03:23:49.281Z,22.83
2016-12-09T03:24:17.455Z,22.91
2016-12-09T03:24:45.735Z,22.88
2016-12-09T03:25:13.906Z,22.89
2016-12-09T03:25:42.077Z,22.89
2016-12-09T03:26:10.263Z,22.84
2016-12-09T03:26:38.404Z,22.89
2016-12-09T03:27:06.559Z,22.89
2016-12-09T03:27:34.718Z,22.81
2016-12-09T03:28:03.047Z,22.84
2016-12-09T03:28:31.275Z,22.84
2016-12-09T03:28:59.464Z,22.88
2016-12-09T03:29:27.629Z,22.8
2016-12-09T03:29:55.802Z,22.78
2016-12-09T03:30:23.970Z,22.81
2016-12-09T03:30:52.223Z,22.8
2016-12-09T03:31:20.422Z,22.83
2016-12-09T03:31:48.562Z,22.91
2016-12-09T03:32:16.770Z,22.84
2016-12-09T03:32:44.985Z,22.88
2016-12-09T03:33:13.167Z,22.81
2016-12-09T03:33:41.442Z,22.88
2016-12-09T03:34:09.617Z,22.8
2016-12-09T03:34:37.791Z,22.84
2016-12-09T03:35:06.055Z,22.83
2016-12-09T03:35:34.205Z,22.88
2016-12-09T03:36:02.342Z,22.83
2016-12-09T03:36:30.508Z,22.78
2016-12-09T03:36:58.660Z,22.8
2016-12-09T03:37:26.828Z,22.8
2016-12-09T03:37:54.988Z,22.89
2016-12-09T03:38:23.175Z,22.88
2016-12-09T03:38:51.336Z,22.92
2016-12-09T03:39:19.502Z,22.84
2016-12-09T03:39:47.703Z,22.84
2016-12-09T03:40:15.853Z,22.95
2016-12-09T03:40:44.037Z,22.95
2016-12-09T03:41:12.196Z,23.08
2016-12-09T03:41:40.339Z,23.07
2016-12-09T03:42:08.518Z,23.07
2016-12-09T03:42:36.663Z,23.08
2016-12-09T03:43:04.867Z,23.18
2016-12-09T03:43:33.043Z,23.17
2016-12-09T03:44:01.230Z,23.23
2016-12-09T03:44:29.393Z,23.25
2016-12-09T03:44:57.529Z,23.23
2016-12-09T03:45:25.703Z,23.18
2016-12-09T03:45:53.879Z,23.23
2016-12-09T03:46:22.115Z,23.2
2016-12-09T03:46:50.270Z,23.32
2016-12-09T03:47:18.453Z,23.33
2016-12-09T03:47:46.635Z,23.36
2016-12-09T03:48:14.898Z,23.34
2016-12-09T03:48:43.056Z,23.47
2016-12-09T03:49:11.245Z,23.42
2016-12-09T03:49:39.389Z,23.42
2016-12-09T03:50:07.528Z,23.49
2016-12-09T03:50:35.684Z,23.45
2016-12-09T03:51:03.871Z,23.44
2016-12-09T03:51:32.040Z,23.47
2016-12-09T03:52:00.174Z,23.55
2016-12-09T03:52:28.377Z,23.56
2016-12-09T03:52:56.520Z,23.48
2016-12-09T03:53:24.693Z,23.54
2016-12-09T03:53:52.845Z,23.52
2016-12-09T03:54:21.025Z,23.52
2016-12-09T03:54:49.225Z,23.55
2016-12-09T03:55:17.383Z,23.62
2016-12-09T03:55:45.543Z,23.64
2016-12-09T03:56:13.679Z,23.58
2016-12-09T03:56:41.873Z,23.58
2016-12-09T03:57:10.129Z,23.62
2016-12-09T03:57:38.349Z,23.66
2016-12-09T03:58:06.488Z,23.59
2016-12-09T03:58:34.717Z,23.62
2016-12-09T03:59:02.963Z,23.64
2016-12-09T03:59:31.106Z,23.64
2016-12-09T03:59:59.295Z,23.62
2016-12-09T04:00:27.471Z,23.64
2016-12-09T04:00:55.672Z,23.63
2016-12-09T04:01:23.900Z,23.64
2016-12-09T04:01:52.096Z,23.67
2016-12-09T04:02:20.260Z,23.49
2016-12-09T04:02:48.438Z,23.58
2016-12-09T04:03:16.676Z,23.56
2016-12-09T04:03:44.863Z,23.48
2016-12-09T04:04:13.062Z,23.52
2016-12-09T04:04:41.246Z,23.51
2016-12-09T04:05:09.499Z,23.52
2016-12-09T04:05:37.655Z,23.52
2016-12-09T04:06:05.818Z,23.47
2016-12-09T04:06:33.966Z,23.44
2016-12-09T04:07:02.262Z,23.37
2016-12-09T04:07:30.502Z,23.45
2016-12-09T04:07:58.693Z,23.34
2016-12-09T04:08:26.972Z,23.39
2016-12-09T04:08:55.147Z,23.42
2016-12-09T04:09:23.295Z,23.28
2016-12-09T04:09:51.444Z,23.36
2016-12-09T04:10:19.648Z,23.28
2016-12-09T04:10:47.824Z,23.21
2016-12-09T04:11:15.980Z,23.26
2016-12-09T04:11:44.132Z,23.25
2016-12-09T04:12:12.276Z,23.25
2016-12-09T04:12:40.480Z,23.23
2016-12-09T04:13:08.740Z,23.29
2016-12-09T04:13:37.060Z,23.25
2016-12-09T04:14:05.228Z,23.33
2016-12-09T04:14:33.412Z,23.36
2016-12-09T04:15:01.571Z,23.36
2016-12-09T04:15:29.730Z,23.26
2016-12-09T04:15:57.884Z,23.42
2016-12-09T04:16:26.054Z,23.34
2016-12-09T04:16:54.231Z,23.4
2016-12-09T04:17:22.403Z,23.45
2016-12-09T04:17:50.653Z,23.42
2016-12-09T04:18:18.845Z,23.37
2016-12-09T04:18:47.006Z,23.39
2016-12-09T04:19:15.143Z,23.47
2016-12-09T04:19:43.291Z,23.49
2016-12-09T04:20:11.550Z,23.39
2016-12-09T04:20:39.676Z,23.42
2016-12-09T04:21:08.215Z,23.47
2016-12-09T04:21:36.963Z,23.45
2016-12-09T04:22:05.168Z,23.54
2016-12-09T04:22:33.326Z,23.59
2016-12-09T04:23:01.604Z,23.66
2016-12-09T04:23:29.854Z,23.64
2016-12-09T04:23:58.007Z,23.7
2016-12-09T04:24:26.164Z,23.67
2016-12-09T04:24:54.310Z,23.73
2016-12-09T04:25:22.459Z,23.71
2016-12-09T04:25:50.643Z,23.67
2016-12-09T04:26:18.906Z,23.81
2016-12-09T04:26:47.061Z,23.73
2016-12-09T04:27:15.232Z,23.77
2016-12-09T04:27:43.406Z,23.81
2016-12-09T04:28:11.768Z,23.81
2016-12-09T04:28:39.921Z,23.88
2016-12-09T04:29:08.107Z,23.88
2016-12-09T04:29:36.265Z,23.77
2016-12-09T04:30:04.424Z,23.86
2016-12-09T04:30:32.577Z,23.85
2016-12-09T04:31:01.030Z,23.86
2016-12-09T04:31:29.895Z,23.92
2016-12-09T04:31:58.030Z,23.86
2016-12-09T04:32:26.207Z,23.81
2016-12-09T04:32:54.366Z,23.76
2016-12-09T04:33:22.510Z,23.85
2016-12-09T04:33:50.662Z,23.82
2016-12-09T04:34:18.839Z,23.81
2016-12-09T04:34:46.980Z,23.84
2016-12-09T04:35:15.147Z,23.77
2016-12-09T04:35:43.300Z,23.79
2016-12-09T04:36:11.469Z,23.82
2016-12-09T04:36:39.735Z,23.71
2016-12-09T04:37:07.903Z,23.66
2016-12-09T04:37:36.091Z,23.58
2016-12-09T04:38:04.323Z,23.51
2016-12-09T04:38:32.477Z,23.49
2016-12-09T04:39:00.712Z,23.48
2016-12-09T04:39:30.530Z,23.42
2016-12-09T04:39:59.304Z,23.55
2016-12-09T04:40:27.487Z,23.52
2016-12-09T04:40:55.750Z,23.45
2016-12-09T04:41:23.932Z,23.47
2016-12-09T04:41:52.109Z,23.47
2016-12-09T04:42:20.265Z,23.36
2016-12-09T04:42:48.441Z,23.21
2016-12-09T04:43:16.695Z,23.25
2016-12-09T04:43:44.836Z,23.14
2016-12-09T04:44:13.004Z,23.18
2016-12-09T04:44:41.178Z,23.14
2016-12-09T04:45:09.428Z,23.18
2016-12-09T04:45:37.611Z,23.13
2016-12-09T04:46:05.950Z,23.14
2016-12-09T04:46:34.103Z,23.04
2016-12-09T04:47:02.263Z,23.04
2016-12-09T04:47:30.406Z,23.11
2016-12-09T04:47:58.543Z,23.16
2016-12-09T04:48:26.707Z,23.16
2016-12-09T04:48:54.844Z,23.08
2016-12-09T04:49:23.030Z,23.13
2016-12-09T04:49:51.247Z,23.11
2016-12-09T04:50:19.511Z,23.18
2016-12-09T04:50:47.677Z,23.18
2016-12-09T04:51:15.838Z,23.17
2016-12-09T04:51:44.018Z,23.13
2016-12-09T04:52:12.198Z,23.08
2016-12-09T04:52:40.381Z,23.14
2016-12-09T04:53:08.548Z,23.13
2016-12-09T04:53:36.822Z,23.1
2016-12-09T04:54:04.975Z,23.18
2016-12-09T04:54:33.337Z,23.18
2016-12-09T04:55:01.486Z,23.13
2016-12-09T04:55:29.690Z,23.02
2016-12-09T04:55:57.959Z,23.14
2016-12-09T04:56:26.237Z,23.13
2016-12-09T04:56:54.452Z,23.13
2016-12-09T04:57:22.600Z,23.06
2016-12-09T04:57:50.767Z,23.13
2016-12-09T04:58:18.954Z,23.04
2016-12-09T04:58:47.131Z,23.2
2016-12-09T04:59:15.337Z,23.2
2016-12-09T04:59:43.517Z,23.18
2016-12-09T05:00:11.760Z,23.17
2016-12-09T05:00:39.936Z,23.2
2016-12-09T05:01:08.076Z,23.13
2016-12-09T05:01:36.222Z,23.23
2016-12-09T05:02:04.388Z,23.21
2016-12-09T05:02:32.551Z,23.18
2016-12-09T05:03:00.886Z,23.21
2016-12-09T05:03:29.054Z,23.2
2016-12-09T05:03:57.244Z,23.25
2016-12-09T05:04:25.646Z,23.26
2016-12-09T05:04:53.821Z,23.21
2016-12-09T05:05:22.255Z,23.29
2016-12-09T05:05:50.432Z,23.28
2016-12-09T05:06:18.684Z,23.25
2016-12-09T05:06:46.830Z,23.23
2016-12-09T05:07:14.975Z,23.33
2016-12-09T05:07:43.230Z,23.42
2016-12-09T05:08:11.389Z,23.44
2016-12-09T05:08:39.565Z,23.39
2016-12-09T05:09:07.702Z,23.37
2016-12-09T05:09:35.883Z,23.45
2016-12-09T05:10:04.112Z,23.49
2016-12-09T05:10:32.294Z,23.4
2016-12-09T05:11:00.544Z,23.37
2016-12-09T05:11:28.719Z,23.45
2016-12-09T05:11:56.976Z,23.42
2016-12-09T05:12:25.151Z,23.45
2016-12-09T05:12:53.298Z,23.44
2016-12-09T05:13:21.457Z,23.45
2016-12-09T05:13:49.608Z,23.4
2016-12-09T05:14:17.865Z,23.45
2016-12-09T05:14:46.040Z,23.48
2016-12-09T05:15:14.266Z,23.51
2016-12-09T05:15:42.452Z,23.45
2016-12-09T05:16:10.614Z,23.47
2016-12-09T05:16:38.845Z,23.44
2016-12-09T05:17:07.090Z,23.42
2016-12-09T05:17:35.283Z,23.4
2016-12-09T05:18:03.510Z,23.37
2016-12-09T05:18:31.670Z,23.39
2016-12-09T05:18:59.849Z,23.4
2016-12-09T05:19:28.059Z,23.45
2016-12-09T05:19:56.235Z,23.42
2016-12-09T05:20:24.419Z,23.37
2016-12-09T05:20:52.581Z,23.45
2016-12-09T05:21:20.733Z,23.39
2016-12-09T05:21:48.901Z,23.36
2016-12-09T05:22:17.063Z,23.45
2016-12-09T05:22:45.220Z,23.34
2016-12-09T05:23:13.441Z,23.34
2016-12-09T05:23:41.601Z,23.33
2016-12-09T05:24:09.848Z,23.34
2016-12-09T05:24:38.020Z,23.34
2016-12-09T05:25:06.253Z,23.28
2016-12-09T05:25:34.506Z,23.25
2016-12-09T05:26:02.654Z,23.25
2016-12-09T05:26:30.859Z,23.23
2016-12-09T05:26:58.991Z,23.23
2016-12-09T05:27:27.153Z,23.17
2016-12-09T05:27:55.323Z,23.16
2016-12-09T05:28:23.589Z,23.08
2016-12-09T05:28:51.852Z,23.16
2016-12-09T05:29:20.103Z,23.13
2016-12-09T05:29:48.294Z,23.02
2016-12-09T05:30:16.500Z,23.07
2016-12-09T05:30:44.754Z,23.02
2016-12-09T05:31:12.935Z,22.99
2016-12-09T05:31:41.088Z,22.96
2016-12-09T05:32:09.235Z,22.98
2016-12-09T05:32:37.501Z,22.98
2016-12-09T05:33:05.655Z,22.95
2016-12-09T05:33:33.862Z,23.01
2016-12-09T05:34:01.991Z,22.93
2016-12-09T05:34:30.269Z,22.92
2016-12-09T05:34:58.438Z,22.96
2016-12-09T05:35:26.684Z,22.95
2016-12-09T05:35:54.998Z,22.91
2016-12-09T05:36:23.170Z,22.98
2016-12-09T05:36:51.421Z,22.93
2016-12-09T05:37:19.594Z,23.01
2016-12-09T05:37:47.766Z,22.92
2016-12-09T05:38:15.932Z,22.98
2016-12-09T05:38:44.112Z,22.99
2016-12-09T05:39:12.267Z,23.06
2016-12-09T05:39:40.416Z,23.11
2016-12-09T05:40:08.664Z,23.07
2016-12-09T05:40:36.836Z,23.08
2016-12-09T05:41:05.007Z,23.13
2016-12-09T05:41:33.262Z,23.14
2016-12-09T05:42:01.418Z,23.16
2016-12-09T05:42:29.575Z,23.17
2016-12-09T05:42:57.734Z,23.17
2016-12-09T05:43:25.909Z,23.23
2016-12-09T05:43:54.078Z,23.26
2016-12-09T05:44:22.414Z,23.26
2016-12-09T05:44:50.558Z,23.23
2016-12-09T05:45:18.736Z,23.28
2016-12-09T05:45:46.942Z,23.33
2016-12-09T05:46:15.111Z,23.29
2016-12-09T05:46:43.293Z,23.42
2016-12-09T05:47:11.453Z,23.45
2016-12-09T05:47:39.635Z,23.47
2016-12-09T05:48:07.813Z,23.45
2016-12-09T05:48:35.972Z,23.44
2016-12-09T05:49:04.150Z,23.39
2016-12-09T05:49:32.291Z,23.59
2016-12-09T05:50:00.452Z,23.51
2016-12-09T05:50:28.619Z,23.52
2016-12-09T05:50:56.786Z,23.56
2016-12-09T05:51:25.132Z,23.62
2016-12-09T05:51:53.365Z,23.62
2016-12-09T05:52:21.541Z,23.64
2016-12-09T05:52:49.702Z,23.7
2016-12-09T05:53:17.896Z,23.63
2016-12-09T05:53:46.123Z,23.59
2016-12-09T05:56:00.383Z,23.66
2016-12-09T05:56:28.653Z,23.64
2016-12-09T05:56:57.068Z,23.66
2016-12-09T05:57:25.239Z,23.73
2016-12-09T05:57:53.510Z,23.71
2016-12-09T05:58:21.682Z,23.66
2016-12-09T05:58:49.821Z,23.69
2016-12-09T05:59:18.044Z,23.66
2016-12-09T05:59:46.210Z,23.62
2016-12-09T06:00:14.359Z,23.66
2016-12-09T06:00:42.581Z,23.66
2016-12-09T06:01:10.744Z,23.63
2016-12-09T06:01:38.887Z,23.59
2016-12-09T06:02:07.023Z,23.63
2016-12-09T06:02:35.213Z,23.66
2016-12-09T06:03:03.366Z,23.59
2016-12-09T06:03:31.534Z,23.59
2016-12-09T06:03:59.670Z,23.59
2016-12-09T06:04:27.854Z,23.58
2016-12-09T06:04:56.094Z,23.63
2016-12-09T06:05:24.263Z,23.63
2016-12-09T06:05:52.448Z,23.55